Time;durP1;ratioP1;P1;durP2;ratioP2;P2;SDS_P1;SDS_P2;PMS_P1;PMS_P2;Temp;Humidity;BMP_temperature;BMP_pressure;BME280_temperature;BME280_humidity;BME280_pressure;Samples;Min_cycle;Max_cycle;Signal;HPM_P1;HPM_P2
2022/12/08 00:01:57;;;;;;;18.92;17.15;;;;;;;2.37;100.00;101227.06;5145879;28;20027;-66
2022/12/08 00:04:28;;;;;;;13.93;12.98;;;;;;;2.58;100.00;101263.53;5146494;28;20026;-66
2022/12/08 00:09:48;;;;;;;16.17;14.88;;;;;;;2.69;100.00;101261.16;5146643;28;20121;-66
2022/12/08 00:12:18;;;;;;;18.85;17.10;;;;;;;2.68;100.00;101251.50;5145750;28;20105;-67
2022/12/08 00:14:49;;;;;;;16.80;15.35;;;;;;;2.69;100.00;101247.81;5146469;28;20023;-66
2022/12/08 00:17:19;;;;;;;17.52;16.02;;;;;;;2.70;100.00;101237.97;5146265;28;20518;-66
2022/12/08 00:19:49;;;;;;;17.85;16.48;;;;;;;2.69;100.00;101241.66;5146356;28;20029;-66
2022/12/08 00:22:20;;;;;;;18.30;16.33;;;;;;;2.70;100.00;101232.66;5145837;28;20054;-66
2022/12/08 00:24:50;;;;;;;17.02;15.52;;;;;;;2.71;100.00;101218.28;5145132;28;20034;-67
2022/12/08 00:27:20;;;;;;;18.27;16.80;;;;;;;2.73;100.00;101224.25;5145985;28;20396;-67
2022/12/08 00:29:51;;;;;;;16.98;15.57;;;;;;;2.72;100.00;101219.94;5146143;28;20080;-67
2022/12/08 00:32:21;;;;;;;19.73;18.13;;;;;;;2.73;100.00;101221.59;5145654;28;20061;-66
2022/12/08 00:34:51;;;;;;;18.90;17.48;;;;;;;2.72;100.00;101218.09;5146063;28;20066;-66
2022/12/08 00:37:22;;;;;;;17.67;16.05;;;;;;;2.71;100.00;101221.78;5145874;28;20106;-67
2022/12/08 00:39:52;;;;;;;17.38;15.80;;;;;;;2.70;100.00;101221.97;5145860;28;20023;-66
2022/12/08 00:42:23;;;;;;;18.17;16.85;;;;;;;2.71;100.00;101221.78;5145161;28;20149;-67
2022/12/08 00:44:53;;;;;;;17.85;16.27;;;;;;;2.71;100.00;101208.44;5145741;28;20070;-67
2022/12/08 00:47:23;;;;;;;18.52;17.02;;;;;;;2.72;100.00;101220.75;5145824;28;20026;-66
2022/12/08 00:49:54;;;;;;;18.48;16.88;;;;;;;2.72;100.00;101204.75;5145988;28;20039;-67
2022/12/08 00:52:24;;;;;;;19.42;17.55;;;;;;;2.72;100.00;101201.28;5144975;28;20066;-67
2022/12/08 00:54:54;;;;;;;17.88;16.40;;;;;;;2.72;100.00;101201.28;5145328;28;20026;-67
2022/12/08 00:57:25;;;;;;;19.48;17.90;;;;;;;2.71;100.00;101197.78;5144930;28;20031;-67
2022/12/08 00:59:56;;;;;;;19.00;17.08;;;;;;;2.72;100.00;101194.09;5145201;28;20097;-67
2022/12/08 01:02:26;;;;;;;19.33;17.58;;;;;;;2.74;100.00;101207.25;5145019;28;20026;-67
2022/12/08 01:04:56;;;;;;;19.67;17.85;;;;;;;2.75;100.00;101211.56;5145012;28;20031;-67
2022/12/08 01:07:27;;;;;;;19.02;17.42;;;;;;;2.71;100.00;101196.97;5145365;28;20031;-67
2022/12/08 01:09:57;;;;;;;21.88;20.08;;;;;;;2.76;100.00;101201.72;5144974;28;20054;-67
2022/12/08 01:12:29;;;;;;;23.88;21.80;;;;;;;2.75;100.00;101192.88;5144824;28;20241;-70
2022/12/08 01:14:59;;;;;;;22.73;20.92;;;;;;;2.72;100.00;101187.94;5145039;28;20403;-67
2022/12/08 01:17:30;;;;;;;20.58;18.88;;;;;;;2.69;100.00;101186.50;5144847;28;20019;-67
2022/12/08 01:20:00;;;;;;;25.80;23.77;;;;;;;2.62;100.00;101185.63;5144821;28;20567;-67
2022/12/08 01:22:32;;;;;;;27.80;22.00;;;;;;;2.58;100.00;101183.56;5144340;28;20380;-67
2022/12/08 01:25:03;;;;;;;27.42;24.65;;;;;;;2.59;100.00;101199.38;5127397;28;20033;-67
2022/12/08 01:27:33;;;;;;;24.65;22.45;;;;;;;2.49;100.00;101174.88;5145114;28;20039;-67
2022/12/08 01:30:05;;;;;;;24.90;22.58;;;;;;;2.51;100.00;101188.84;5144611;28;20038;-66
2022/12/08 01:32:35;;;;;;;27.55;24.90;;;;;;;2.45;100.00;101181.63;5144230;28;20031;-66
2022/12/08 01:37:39;;;;;;;26.90;24.63;;;;;;;2.24;100.00;101160.38;5143499;28;20419;-63
2022/12/08 01:40:09;;;;;;;25.20;23.25;;;;;;;2.33;100.00;101180.50;5127291;28;20037;-65
2022/12/08 01:42:40;;;;;;;26.85;24.80;;;;;;;2.31;100.00;101180.69;5143813;28;20037;-64
2022/12/08 01:45:21;;;;;;;23.20;21.40;;;;;;;2.35;100.00;101181.13;5125534;28;20027;-63
2022/12/08 01:47:59;;;;;;;30.77;23.27;;;;;;;2.42;100.00;101178.53;5125192;29;20058;-64
2022/12/08 01:50:30;;;;;;;25.50;23.33;;;;;;;2.14;100.00;101125.25;5124818;29;20023;-63
2022/12/08 01:53:09;;;;;;;27.67;25.27;;;;;;;2.43;100.00;101175.66;5106697;28;20027;-63
2022/12/08 01:55:50;;;;;;;30.67;27.05;;;;;;;2.39;100.00;101177.06;5107601;29;20025;-64
2022/12/08 01:58:36;;;;;;;25.92;23.10;;;;;;;2.43;100.00;101178.31;5124721;29;20035;-63
2022/12/08 02:01:07;;;;;;;27.48;24.83;;;;;;;2.32;100.00;101176.19;5125088;29;20086;-64
2022/12/08 02:03:44;;;;;;;31.73;25.70;;;;;;;2.30;100.00;101165.75;5123947;28;20031;-64
2022/12/08 02:06:16;;;;;;;24.48;21.90;;;;;;;2.30;100.00;101171.09;5124359;29;20055;-63
2022/12/08 02:08:48;;;;;;;26.48;24.08;;;;;;;2.28;100.00;101164.28;5124831;28;20079;-64
2022/12/08 02:11:19;;;;;;;30.02;26.40;;;;;;;2.28;100.00;101170.44;5107362;29;20023;-66
2022/12/08 02:13:51;;;;;;;25.42;23.05;;;;;;;2.09;100.00;101136.47;5106632;29;20031;-65
2022/12/08 02:16:28;;;;;;;27.58;24.83;;;;;;;2.30;100.00;101162.25;5106996;29;20487;-63
2022/12/08 02:19:40;;;;;;;27.65;25.38;;;;;;;2.29;100.00;101164.09;5124116;29;20503;-66
2022/12/08 02:22:15;;;;;;;26.92;24.67;;;;;;;2.32;100.00;101161.03;5123573;29;20038;-66
2022/12/08 02:25:02;;;;;;;26.73;24.00;;;;;;;2.30;100.00;101163.09;5124002;28;20436;-63
2022/12/08 02:28:14;;;;;;;28.85;26.15;;;;;;;2.30;100.00;101164.94;5107323;29;20027;-66
2022/12/08 02:31:10;;;;;;;27.70;25.23;;;;;;;1.91;100.00;101115.66;5124550;29;20019;-65
2022/12/08 02:34:03;;;;;;;26.75;24.58;;;;;;;2.33;100.00;101156.53;5123418;28;20026;-65
2022/12/08 02:36:39;;;;;;;29.48;26.58;;;;;;;2.32;100.00;101157.53;5124087;29;20091;-65
2022/12/08 02:39:33;;;;;;;26.60;24.13;;;;;;;2.28;100.00;101153.63;5123671;29;20027;-65
2022/12/08 02:42:14;;;;;;;27.73;25.30;;;;;;;2.30;100.00;101159.59;5123332;29;20743;-66
2022/12/08 02:44:50;;;;;;;28.23;25.58;;;;;;;2.26;100.00;101145.84;5123329;28;20023;-66
2022/12/08 02:47:23;;;;;;;33.05;25.70;;;;;;;2.21;100.00;101142.09;5124230;28;20109;-65
2022/12/08 02:49:56;;;;;;;24.42;22.27;;;;;;;2.12;100.00;101129.94;5123925;28;20278;-65
2022/12/08 02:52:27;;;;;;;28.42;25.65;;;;;;;2.08;100.00;101139.31;5123057;28;20488;-64
2022/12/08 02:55:25;;;;;;;25.40;23.52;;;;;;;2.02;100.00;101136.41;5122700;28;20110;-65
2022/12/08 02:57:56;;;;;;;24.35;22.00;;;;;;;2.06;100.00;101126.19;5097936;28;20043;-65
2022/12/08 03:00:35;;;;;;;29.67;26.75;;;;;;;2.05;100.00;101132.53;5123691;29;20033;-65
2022/12/08 03:03:20;;;;;;;26.13;23.90;;;;;;;2.12;100.00;101129.94;5123254;28;20392;-65
2022/12/08 03:06:04;;;;;;;27.38;24.85;;;;;;;2.12;100.00;101114.78;5122159;29;20031;-65
2022/12/08 03:08:34;;;;;;;25.98;23.75;;;;;;;2.10;100.00;101106.16;5123749;28;20035;-65
2022/12/08 03:11:19;;;;;;;23.83;21.98;;;;;;;2.11;100.00;101120.28;5123499;29;20455;-65
2022/12/08 03:13:53;;;;;;;22.45;20.63;;;;;;;2.14;100.00;101114.59;5124256;28;20102;-66
2022/12/08 03:16:27;;;;;;;34.97;23.90;;;;;;;2.15;100.00;101119.72;5124880;28;20074;-66
2022/12/08 03:19:04;;;;;;;24.15;21.75;;;;;;;2.06;100.00;101102.22;5124875;28;20027;-67
2022/12/08 03:21:37;;;;;;;23.63;21.70;;;;;;;2.18;100.00;101116.66;5125488;28;20461;-66
2022/12/08 03:24:09;;;;;;;24.70;22.20;;;;;;;2.17;100.00;101099.03;5127526;28;20023;-66
2022/12/08 03:26:49;;;;;;;23.38;21.48;;;;;;;2.19;100.00;101090.84;5126452;29;20027;-66
2022/12/08 03:29:20;;;;;;;30.95;22.25;;;;;;;2.19;100.00;101093.50;5127971;28;20020;-66
2022/12/08 03:31:56;;;;;;;26.75;24.27;;;;;;;2.21;100.00;101094.16;5127059;28;20034;-66
2022/12/08 03:34:28;;;;;;;27.08;24.13;;;;;;;2.19;100.00;101090.84;5127493;28;20415;-64
2022/12/08 03:37:01;;;;;;;25.58;23.25;;;;;;;2.20;100.00;101092.50;5127026;28;20035;-64
2022/12/08 03:39:31;;;;;;;24.85;22.70;;;;;;;2.17;100.00;101087.56;5127086;28;20034;-64
2022/12/08 03:42:02;;;;;;;24.20;22.17;;;;;;;2.19;100.00;101083.69;5126948;29;20031;-63
2022/12/08 03:44:32;;;;;;;24.15;22.10;;;;;;;2.13;100.00;101073.81;5126984;28;20106;-66
2022/12/08 03:47:02;;;;;;;26.10;23.65;;;;;;;2.19;100.00;101082.84;5127617;28;20023;-64
2022/12/08 03:49:33;;;;;;;25.05;22.73;;;;;;;2.16;100.00;101077.91;5126978;28;20023;-64
2022/12/08 03:52:03;;;;;;;24.30;22.08;;;;;;;2.12;100.00;101074.81;5126490;29;20379;-63
2022/12/08 03:54:34;;;;;;;24.95;22.38;;;;;;;1.81;100.00;101035.28;5127099;28;20070;-64
2022/12/08 03:57:04;;;;;;;25.85;23.80;;;;;;;2.05;100.00;101071.28;5127454;29;20365;-64
2022/12/08 03:59:34;;;;;;;24.83;22.65;;;;;;;2.04;100.00;101072.28;5126727;28;20472;-64
2022/12/08 04:02:05;;;;;;;24.70;21.75;;;;;;;2.03;100.00;101063.47;5126367;28;20381;-65
2022/12/08 04:04:35;;;;;;;23.73;21.70;;;;;;;2.00;100.00;101052.44;5128528;28;20019;-64
2022/12/08 04:07:06;;;;;;;25.67;23.27;;;;;;;2.07;100.00;101071.09;5128127;29;20032;-64
2022/12/08 04:09:37;;;;;;;24.50;22.55;;;;;;;2.07;100.00;101069.25;5127625;29;20027;-64
2022/12/08 04:12:08;;;;;;;24.90;22.55;;;;;;;2.03;100.00;101066.16;5126405;29;20161;-66
2022/12/08 04:14:38;;;;;;;23.48;21.27;;;;;;;1.96;100.00;101054.66;5126847;28;20503;-65
2022/12/08 04:17:09;;;;;;;24.73;22.70;;;;;;;1.91;100.00;101056.25;5126902;29;20503;-65
2022/12/08 04:19:39;;;;;;;23.58;21.83;;;;;;;1.87;100.00;101055.81;5126806;28;20081;-65
2022/12/08 04:22:10;;;;;;;24.48;21.58;;;;;;;1.67;100.00;101023.72;5126554;28;20447;-64
2022/12/08 04:24:40;;;;;;;26.23;23.80;;;;;;;1.86;100.00;101056.81;5126727;28;20038;-66
2022/12/08 04:27:10;;;;;;;23.35;21.38;;;;;;;1.82;100.00;101044.91;5126701;29;20062;-65
2022/12/08 04:29:41;;;;;;;34.25;23.08;;;;;;;1.69;100.00;101027.03;5126504;28;20027;-64
2022/12/08 04:32:11;;;;;;;25.20;22.95;;;;;;;1.86;100.00;101056.81;5125981;28;20020;-64
2022/12/08 04:34:42;;;;;;;24.02;22.00;;;;;;;1.77;100.00;101033.19;5125598;28;20093;-63
2022/12/08 04:37:12;;;;;;;24.30;21.90;;;;;;;1.92;100.00;101056.06;5126695;28;20054;-63
2022/12/08 04:39:42;;;;;;;24.55;22.55;;;;;;;1.93;100.00;101049.72;5126338;29;20031;-63
2022/12/08 04:42:13;;;;;;;23.38;21.30;;;;;;;1.95;100.00;101042.34;5126488;29;20110;-63
2022/12/08 04:44:43;;;;;;;23.48;21.40;;;;;;;1.95;100.00;101042.34;5126654;28;20054;-64
2022/12/08 04:47:13;;;;;;;26.52;23.92;;;;;;;1.93;100.00;101036.41;5126848;29;20023;-64
2022/12/08 04:49:44;;;;;;;22.98;21.00;;;;;;;1.95;100.00;101047.69;5126738;29;20031;-64
2022/12/08 04:52:14;;;;;;;24.45;22.33;;;;;;;1.94;100.00;101048.69;5126200;29;20110;-64
2022/12/08 04:54:44;;;;;;;24.58;22.40;;;;;;;1.97;100.00;101050.97;5126406;28;20027;-64
2022/12/08 04:57:15;;;;;;;24.90;22.65;;;;;;;1.94;100.00;101046.03;5126513;29;20138;-64
2022/12/08 04:59:45;;;;;;;27.17;24.55;;;;;;;1.97;100.00;101050.97;5126343;29;20031;-64
2022/12/08 05:02:16;;;;;;;25.17;21.58;;;;;;;1.99;100.00;101045.44;5126401;29;20055;-64
2022/12/08 05:04:46;;;;;;;22.75;20.80;;;;;;;1.99;100.00;101045.44;5126171;28;20054;-65
2022/12/08 05:07:16;;;;;;;28.40;22.85;;;;;;;2.01;100.00;101046.09;5126625;28;20027;-64
2022/12/08 05:09:47;;;;;;;22.67;20.80;;;;;;;2.01;100.00;101046.91;5127704;29;20034;-65
2022/12/08 05:12:17;;;;;;;20.88;19.10;;;;;;;2.04;100.00;101046.47;5126476;29;20102;-64
2022/12/08 05:14:48;;;;;;;22.95;20.50;;;;;;;2.04;100.00;101056.31;5126667;28;20042;-64
2022/12/08 05:17:18;;;;;;;23.25;21.45;;;;;;;2.04;100.00;101051.00;5126632;28;20086;-63
2022/12/08 05:19:48;;;;;;;21.30;19.70;;;;;;;2.00;100.00;101034.59;5127103;29;20567;-65
2022/12/08 05:22:19;;;;;;;24.10;21.80;;;;;;;2.01;100.00;101043.41;5126709;29;20043;-65
2022/12/08 05:24:49;;;;;;;23.27;21.42;;;;;;;2.01;100.00;101036.25;5125857;28;20103;-65
2022/12/08 05:27:19;;;;;;;21.42;19.20;;;;;;;1.99;100.00;101026.81;5125562;29;20034;-65
2022/12/08 05:29:50;;;;;;;18.08;16.63;;;;;;;2.00;100.00;101020.47;5125093;29;20507;-64
2022/12/08 05:32:20;;;;;;;16.88;15.23;;;;;;;1.97;100.00;101023.50;5125201;29;20379;-64
2022/12/08 05:34:50;;;;;;;16.17;14.77;;;;;;;1.92;100.00;101017.94;5125295;28;20031;-64
2022/12/08 05:37:21;;;;;;;16.80;15.52;;;;;;;1.77;100.00;100994.06;5125429;29;20027;-64
2022/12/08 05:39:51;;;;;;;17.45;16.02;;;;;;;1.90;100.00;101001.34;5124284;29;20054;-64
2022/12/08 05:42:21;;;;;;;16.88;15.57;;;;;;;1.88;100.00;101008.69;5124581;29;20023;-65
2022/12/08 05:44:52;;;;;;;17.45;16.20;;;;;;;1.84;100.00;100999.44;5124433;28;20035;-67
2022/12/08 05:47:22;;;;;;;18.92;17.17;;;;;;;1.82;100.00;100998.81;5125167;28;20023;-66
2022/12/08 05:49:53;;;;;;;19.33;17.65;;;;;;;1.81;100.00;100999.84;5124623;28;20034;-66
2022/12/08 05:52:23;;;;;;;20.42;18.65;;;;;;;1.81;100.00;101000.66;5124477;29;20030;-63
2022/12/08 05:54:53;;;;;;;20.52;18.88;;;;;;;1.81;100.00;100998.00;5120738;28;20039;-65
2022/12/08 05:57:24;;;;;;;20.35;18.83;;;;;;;1.81;100.00;100994.50;5123530;29;20058;-64
2022/12/08 05:59:55;;;;;;;31.08;18.33;;;;;;;1.85;100.00;100993.94;5124767;29;20038;-64
2022/12/08 06:02:26;;;;;;;18.45;16.92;;;;;;;1.85;100.00;101004.59;5124203;29;20028;-64
2022/12/08 06:04:56;;;;;;;20.17;18.42;;;;;;;1.89;100.00;100995.19;5107197;29;20488;-64
2022/12/08 06:07:27;;;;;;;20.05;18.17;;;;;;;1.92;100.00;100994.81;5123542;29;20158;-64
2022/12/08 06:09:57;;;;;;;21.45;19.77;;;;;;;1.92;100.00;101005.47;5107278;29;20034;-62
2022/12/08 06:12:27;;;;;;;23.90;20.17;;;;;;;1.89;100.00;100995.19;5123811;29;20029;-65
2022/12/08 06:14:58;;;;;;;21.52;19.63;;;;;;;1.75;100.00;100966.00;5107168;29;20042;-64
2022/12/08 06:17:28;;;;;;;19.58;17.92;;;;;;;1.87;100.00;100994.56;5123846;29;20034;-63
2022/12/08 06:19:58;;;;;;;21.15;19.17;;;;;;;1.88;100.00;100998.88;5123926;29;20019;-64
2022/12/08 06:22:29;;;;;;;21.05;19.10;;;;;;;1.87;100.00;100989.25;5123874;29;20129;-64
2022/12/08 06:24:59;;;;;;;18.35;16.73;;;;;;;1.78;100.00;100982.41;5124034;28;20023;-62
2022/12/08 06:27:30;;;;;;;18.05;16.42;;;;;;;1.84;100.00;100986.97;5126292;29;20027;-64
2022/12/08 06:30:00;;;;;;;20.02;18.17;;;;;;;1.82;100.00;100985.50;5125576;29;20491;-67
2022/12/08 06:32:30;;;;;;;20.13;18.52;;;;;;;1.79;100.00;100978.72;5106155;29;20094;-64
2022/12/08 06:35:01;;;;;;;20.38;18.50;;;;;;;1.75;100.00;100988.13;5124630;28;20610;-65
2022/12/08 06:37:31;;;;;;;24.98;19.27;;;;;;;1.67;100.00;100980.31;5124144;29;20034;-65
2022/12/08 06:40:02;;;;;;;20.80;18.85;;;;;;;1.71;100.00;100984.22;5124233;29;20024;-64
2022/12/08 06:42:46;;;;;;;19.13;17.75;;;;;;;1.63;100.00;100976.38;5123662;29;20037;-66
2022/12/08 06:45:17;;;;;;;24.58;21.30;;;;;;;1.56;100.00;100972.84;5124346;28;20027;-64
2022/12/08 06:47:47;;;;;;;24.45;21.77;;;;;;;1.60;100.00;100988.25;5123974;29;20031;-64
2022/12/08 06:50:18;;;;;;;21.27;19.30;;;;;;;1.59;100.00;100977.78;5123811;29;20542;-66
2022/12/08 06:52:48;;;;;;;23.35;21.40;;;;;;;1.56;100.00;100988.81;5106084;28;20035;-67
2022/12/08 06:55:19;;;;;;;23.98;21.92;;;;;;;1.53;100.00;100983.88;5123463;29;20025;-63
2022/12/08 06:57:49;;;;;;;25.38;23.15;;;;;;;1.50;100.00;100984.25;5106106;29;20038;-64
2022/12/08 07:00:20;;;;;;;26.27;23.60;;;;;;;1.48;100.00;100981.81;5123649;29;20035;-64
2022/12/08 07:02:50;;;;;;;24.20;22.08;;;;;;;1.44;100.00;100985.88;5089946;28;20086;-64
2022/12/08 07:05:20;;;;;;;27.50;25.08;;;;;;;1.42;100.00;100990.56;5123622;29;20399;-64
2022/12/08 07:07:51;;;;;;;26.05;24.00;;;;;;;1.43;100.00;100991.41;5123084;29;20558;-66
2022/12/08 07:10:21;;;;;;;25.13;22.90;;;;;;;1.40;100.00;100986.47;5123888;29;20399;-65
2022/12/08 07:12:52;;;;;;;28.70;25.92;;;;;;;1.39;100.00;100988.28;5123143;28;20038;-66
2022/12/08 07:15:22;;;;;;;24.70;22.70;;;;;;;1.41;100.00;100990.78;5123144;29;20027;-65
2022/12/08 07:17:52;;;;;;;26.88;23.92;;;;;;;1.39;100.00;100990.97;5122810;29;20476;-69
2022/12/08 07:20:23;;;;;;;26.27;23.88;;;;;;;1.41;100.00;100988.09;5122778;29;20408;-66
2022/12/08 07:22:53;;;;;;;26.70;24.30;;;;;;;1.41;100.00;100985.44;5122485;28;20039;-66
2022/12/08 07:25:24;;;;;;;24.17;22.08;;;;;;;1.25;100.00;100960.75;5123224;29;20023;-65
2022/12/08 07:27:54;;;;;;;27.33;24.90;;;;;;;1.33;100.00;100987.22;5122846;29;20111;-64
2022/12/08 07:30:24;;;;;;;24.92;22.95;;;;;;;1.37;100.00;100989.50;5123273;29;20487;-67
2022/12/08 07:32:55;;;;;;;28.58;25.58;;;;;;;1.31;100.00;100978.59;5122587;28;20031;-65
2022/12/08 07:35:25;;;;;;;25.77;23.70;;;;;;;1.33;100.00;100978.41;5123410;29;20099;-68
2022/12/08 07:37:56;;;;;;;28.45;24.55;;;;;;;1.23;100.00;100983.25;5155035;23;20043;-68
2022/12/08 07:40:27;;;;;;;31.05;26.40;;;;;;;1.31;100.00;100989.25;5142869;28;20418;-68
2022/12/08 07:42:57;;;;;;;24.10;21.70;;;;;;;1.21;100.00;100978.09;5139528;28;20082;-68
2022/12/08 07:45:27;;;;;;;26.10;23.50;;;;;;;1.21;100.00;100975.44;5143063;28;20023;-68
2022/12/08 07:47:58;;;;;;;27.67;23.63;;;;;;;1.29;100.00;100983.31;5142816;28;20566;-68
2022/12/08 07:50:28;;;;;;;29.73;26.65;;;;;;;1.31;100.00;100985.78;5142916;28;20097;-71
2022/12/08 07:52:59;;;;;;;29.73;26.67;;;;;;;1.25;100.00;100970.56;5142259;28;20026;-68
2022/12/08 07:55:29;;;;;;;24.65;22.63;;;;;;;1.31;100.00;100975.13;5142729;28;20034;-68
2022/12/08 07:57:59;;;;;;;24.77;22.73;;;;;;;1.33;100.00;100975.75;5142777;28;20535;-67
2022/12/08 08:00:30;;;;;;;26.63;24.30;;;;;;;1.33;100.00;100981.91;5142894;28;20054;-67
2022/12/08 08:03:01;;;;;;;27.98;25.40;;;;;;;1.19;100.00;100966.84;5141002;28;20372;-67
2022/12/08 08:05:31;;;;;;;25.85;23.65;;;;;;;1.36;100.00;100991.34;5141378;28;20129;-67
2022/12/08 08:08:02;;;;;;;26.42;23.98;;;;;;;1.38;100.00;100991.16;5144525;28;20109;-67
2022/12/08 08:10:32;;;;;;;26.05;23.95;;;;;;;1.40;100.00;100983.81;5146653;28;20229;-67
2022/12/08 08:13:03;;;;;;;26.95;24.38;;;;;;;1.41;100.00;100985.44;5145807;28;20031;-67
2022/12/08 08:15:33;;;;;;;27.98;24.95;;;;;;;1.39;100.00;100966.19;5146250;28;20077;-67
2022/12/08 08:18:03;;;;;;;26.88;24.48;;;;;;;1.46;100.00;100983.00;5146390;28;20022;-71
2022/12/08 08:20:34;;;;;;;25.75;23.42;;;;;;;1.32;100.00;100953.66;5146071;28;20034;-67
2022/12/08 08:23:04;;;;;;;25.52;23.50;;;;;;;1.47;100.00;100980.16;5145446;28;20491;-67
2022/12/08 08:25:35;;;;;;;25.25;22.77;;;;;;;1.47;100.00;100976.66;5146003;28;20048;-66
2022/12/08 08:28:05;;;;;;;24.73;22.63;;;;;;;1.51;100.00;100986.75;5146093;28;20285;-67
2022/12/08 08:30:35;;;;;;;25.55;23.42;;;;;;;1.52;100.00;100983.06;5144556;28;20070;-67
2022/12/08 08:33:06;;;;;;;25.70;23.60;;;;;;;1.56;100.00;100981.66;5145323;28;20107;-67
2022/12/08 08:35:36;;;;;;;25.25;22.90;;;;;;;1.60;100.00;100979.44;5145245;28;20035;-67
2022/12/08 08:38:07;;;;;;;26.25;23.48;;;;;;;1.67;100.00;100982.97;5145285;28;20044;-68
2022/12/08 08:40:37;;;;;;;29.52;23.55;;;;;;;1.73;100.00;100973.41;5144531;28;20078;-67
2022/12/08 08:43:08;;;;;;;24.17;21.55;;;;;;;1.79;100.00;100973.41;5144770;28;20031;-67
2022/12/08 08:45:38;;;;;;;24.33;22.17;;;;;;;1.85;100.00;100967.31;5145806;28;20032;-67
2022/12/08 08:48:08;;;;;;;22.25;20.38;;;;;;;1.78;100.00;100963.78;5128384;28;20026;-65
2022/12/08 08:50:39;;;;;;;23.40;21.33;;;;;;;1.95;100.00;100969.63;5145520;28;20110;-66
2022/12/08 08:53:09;;;;;;;24.85;22.73;;;;;;;1.97;100.00;100971.06;5144822;28;20030;-66
2022/12/08 08:55:40;;;;;;;22.65;20.75;;;;;;;1.97;100.00;100959.59;5145393;28;20029;-68
2022/12/08 08:58:10;;;;;;;23.63;21.67;;;;;;;2.00;100.00;100960.03;5145568;28;20023;-67
2022/12/08 09:00:40;;;;;;;21.73;19.65;;;;;;;2.00;100.00;100952.03;5145321;28;20467;-66
2022/12/08 09:03:11;;;;;;;20.90;19.20;;;;;;;2.05;100.00;100956.75;5144818;28;20037;-66
2022/12/08 09:05:41;;;;;;;20.77;18.75;;;;;;;2.07;100.00;100956.56;5145038;28;20471;-66
2022/12/08 09:08:12;;;;;;;20.23;18.50;;;;;;;2.02;100.00;100954.50;5145145;28;20058;-66
2022/12/08 09:10:42;;;;;;;22.15;18.15;;;;;;;2.06;100.00;100963.72;5145075;28;20042;-67
2022/12/08 09:13:12;;;;;;;21.20;19.25;;;;;;;2.07;100.00;100962.69;5144559;28;20026;-66
2022/12/08 09:15:43;;;;;;;21.83;18.80;;;;;;;2.05;100.00;100967.41;5145177;28;20023;-66
2022/12/08 09:18:13;;;;;;;18.10;16.73;;;;;;;2.00;100.00;100972.53;5144998;28;20110;-66
2022/12/08 09:20:44;;;;;;;21.42;19.30;;;;;;;1.85;100.00;100950.50;5144234;28;20334;-66
2022/12/08 09:23:14;;;;;;;18.92;16.98;;;;;;;1.84;100.00;100957.69;5144571;28;20106;-67
2022/12/08 09:25:45;;;;;;;19.88;18.42;;;;;;;1.54;100.00;100921.66;5144931;28;20058;-66
2022/12/08 09:28:15;;;;;;;19.73;17.70;;;;;;;1.88;100.00;100966.09;5145119;28;20103;-66
2022/12/08 09:30:45;;;;;;;25.50;16.10;;;;;;;1.86;100.00;100963.63;5144693;28;20029;-66
2022/12/08 09:33:16;;;;;;;17.52;16.15;;;;;;;1.81;100.00;100968.72;5144021;28;20019;-67
2022/12/08 09:35:46;;;;;;;20.83;17.73;;;;;;;1.79;100.00;100959.28;5144760;28;20062;-66
2022/12/08 09:38:17;;;;;;;16.80;15.27;;;;;;;1.76;100.00;100965.00;5145095;28;20106;-66
2022/12/08 09:40:50;;;;;;;18.20;16.15;;;;;;;1.72;100.00;100961.91;5145054;28;20020;-67
2022/12/08 09:43:50;;;;;;;19.27;17.42;;;;;;;1.72;100.00;100953.94;5144140;28;20082;-67
2022/12/08 09:46:21;;;;;;;19.33;17.83;;;;;;;1.72;100.00;100951.28;5125554;28;20114;-66
2022/12/08 09:48:55;;;;;;;19.13;16.13;;;;;;;1.70;100.00;100947.97;5143531;28;20154;-66
2022/12/08 09:51:39;;;;;;;18.45;16.73;;;;;;;1.74;100.00;100949.22;5144787;28;20391;-67
2022/12/08 09:54:16;;;;;;;21.38;19.23;;;;;;;1.73;100.00;100941.44;5144327;28;20029;-66
2022/12/08 09:56:48;;;;;;;23.02;21.02;;;;;;;1.67;100.00;100929.75;5144584;28;20027;-67
2022/12/08 09:59:21;;;;;;;20.38;18.60;;;;;;;1.80;100.00;100945.75;5144590;28;20471;-66
2022/12/08 10:01:53;;;;;;;22.70;16.58;;;;;;;1.83;100.00;100937.38;5144451;28;20030;-66
2022/12/08 10:04:36;;;;;;;21.00;19.05;;;;;;;1.69;100.00;100901.09;5144050;28;20033;-66
2022/12/08 10:07:23;;;;;;;18.35;16.48;;;;;;;1.94;100.00;100928.84;5144631;28;20074;-66
2022/12/08 10:10:04;;;;;;;20.98;19.30;;;;;;;2.12;100.00;100927.47;5144143;28;20517;-66
2022/12/08 10:12:43;;;;;;;22.13;20.10;;;;;;;2.25;100.00;100933.69;5143513;28;20030;-66
2022/12/08 10:15:38;;;;;;;20.00;18.05;;;;;;;2.42;100.00;100928.00;5144281;28;20093;-66
2022/12/08 10:18:15;;;;;;;26.52;21.77;;;;;;;2.50;100.00;100917.97;5144185;28;20031;-66
2022/12/08 10:20:48;;;;;;;19.02;17.10;;;;;;;2.48;100.00;100893.38;5143825;28;20081;-66
2022/12/08 10:23:32;;;;;;;17.98;16.40;;;;;;;2.81;100.00;100921.94;5143160;28;20030;-67
2022/12/08 10:26:05;;;;;;;16.55;15.43;;;;;;;2.94;100.00;100904.06;5144507;28;20034;-66
2022/12/08 10:28:36;;;;;;;19.83;17.20;;;;;;;2.97;100.00;100898.34;5140620;28;20106;-67
2022/12/08 10:31:14;;;;;;;18.23;16.73;;;;;;;2.96;100.00;100883.34;5142389;28;20110;-66
2022/12/08 10:33:50;;;;;;;17.60;16.02;;;;;;;3.16;100.00;100898.56;5140995;28;20464;-66
2022/12/08 10:36:20;;;;;;;21.25;16.13;;;;;;;3.30;100.00;100892.97;5141334;28;20026;-66
2022/12/08 10:38:50;;;;;;;19.02;17.20;;;;;;;3.54;100.00;100907.50;5144025;28;20535;-66
2022/12/08 10:41:23;;;;;;;17.25;15.52;;;;;;;3.69;100.00;100894.75;5142981;28;20027;-66
2022/12/08 10:44:00;;;;;;;16.52;15.00;;;;;;;3.75;100.00;100890.44;5124494;28;20518;-66
2022/12/08 10:46:30;;;;;;;15.73;14.60;;;;;;;3.89;100.00;100892.00;5125420;28;20031;-66
2022/12/08 10:49:04;;;;;;;15.68;14.50;;;;;;;4.08;100.00;100887.59;5143949;28;20034;-65
2022/12/08 10:51:34;;;;;;;15.05;13.40;;;;;;;4.26;100.00;100886.91;5143034;28;20101;-65
2022/12/08 10:54:23;;;;;;;14.38;13.25;;;;;;;4.34;100.00;100892.00;5142800;28;20527;-65
2022/12/08 10:56:55;;;;;;;12.95;12.02;;;;;;;4.31;100.00;100874.56;5143521;28;20027;-65
2022/12/08 10:59:26;;;;;;;17.20;13.50;;;;;;;4.34;100.00;100892.00;5143592;28;20031;-67
2022/12/08 11:01:56;;;;;;;18.38;16.60;;;;;;;4.15;100.00;100879.56;5141619;28;20507;-65
2022/12/08 11:04:35;;;;;;;16.20;14.63;;;;;;;4.18;100.00;100884.50;5139597;28;20034;-63
2022/12/08 11:07:10;;;;;;;15.43;13.05;;;;;;;4.11;100.00;100881.00;5143552;28;20663;-66
2022/12/08 11:09:47;;;;;;;15.85;14.32;;;;;;;3.93;100.00;100847.81;5143787;28;20134;-65
2022/12/08 11:12:22;;;;;;;12.88;11.90;;;;;;;4.12;100.00;100869.28;5141878;28;20019;-65
2022/12/08 11:15:01;;;;;;;14.18;12.68;;;;;;;4.02;100.00;100865.25;5143624;28;20115;-66
2022/12/08 11:17:39;;;;;;;14.57;13.13;;;;;;;3.92;100.00;100870.22;5143692;28;20513;-65
2022/12/08 11:20:09;;;;;;;18.00;14.10;;;;;;;3.84;100.00;100873.13;5143913;28;20513;-65
2022/12/08 11:22:58;;;;;;;19.00;14.15;;;;;;;3.80;100.00;100871.91;5143765;28;20023;-66
2022/12/08 11:25:29;;;;;;;13.15;12.27;;;;;;;3.79;100.00;100859.56;5134920;28;20066;-67
2022/12/08 11:28:00;;;;;;;16.30;14.77;;;;;;;3.71;100.00;100841.97;5142369;28;20034;-66
2022/12/08 11:30:39;;;;;;;14.23;13.00;;;;;;;3.78;100.00;100860.59;5143954;28;20106;-65
2022/12/08 11:33:23;;;;;;;24.30;14.90;;;;;;;3.76;100.00;100860.00;5143359;28;20027;-66
2022/12/08 11:36:08;;;;;;;17.13;15.43;;;;;;;3.71;100.00;100855.31;5143502;28;20029;-65
2022/12/08 11:38:43;;;;;;;16.13;14.52;;;;;;;3.65;100.00;100848.13;5143992;28;20023;-65
2022/12/08 11:41:21;;;;;;;16.70;15.40;;;;;;;3.52;100.00;100836.66;5143602;28;20058;-65